Jacksonville Craig, FL

7:08 AM EST on December 05, 2016 (GMT -0500)
Craig Municipal | | Change Station

Elev 39 ft 30.34 °N, 81.51 °W | Updated 15 minutes ago

Clear
Clear
65 °F
Feels Like 65 °F
N
4
Wind Variable Wind from South

Today
High -- | Low -- °F
--% Chance of Precip.
Yesterday
High -- | Low -- °F
Precip. -- in
Pressure 29.99 in
Visibility 6.0 miles
Clouds Clear
Dew Point 64 °F
Humidity 97%
Rainfall 0.00 in
Snow Depth Not available.
7:08 AM 5:25 PM
Waxing Crescent, 31% visible
METAR KCRG 051153Z 18003KT 6SM BR CLR 18/18 A3000 RMK AO2 SLP156 T01830178 10211 20172 53000
Pressure 29.99 in
Visibility 6.0 miles
Clouds Clear
Dew Point 64 °F
Humidity 97%
Rainfall 0.00 in
Snow Depth Not available.
7:08 AM 5:25 PM
Waxing Crescent, 31% visible
METAR KCRG 051153Z 18003KT 6SM BR CLR 18/18 A3000 RMK AO2 SLP156 T01830178 10211 20172 53000

10-Day Weather Forecast

Almanac

Astronomy

Dec. 05, 2016 Rise Set
Actual Time
Civil Twilight
Nautical Twilight
Astronomical Twilight
Moon
Length of Visible Light
Length of Day
Tomorrow will be .
, % of the Moon is Illuminated

Today's Extremes

State Highs State Lows

Community

WunderPhotos

Upload Photos

1,955,779 photos uploaded!

WunderBlog® & News

Nearby

Air Quality

  Air Quality AQ Index Pollutant
Not available.

Snow Depth

Station Depth Elevation

Earthquake Activity

City Distance Mag. Time & Date
Minimum magnitude displayed is 2.5.

Coastal Water Temperatures

Place Temperature

Stations

Nearby Weather Stations

Station Location Temp. Windchill Dew Point Humidity Wind Precip. Elev Updated Type
                   

Watches & Warnings

There are currently no watches in effect.